Americus, GA

6:34 PM EST on December 07, 2016 (GMT -0500)
Lyle Farms | | Change Station

Elev 285 ft 31.98 °N, 83.96 °W | Updated 8 minutes ago

Partly Cloudy
Partly Cloudy
56.2 °F
Feels Like 56.2 °F
N
4.0
Wind Variable Wind from NNE
Gusts 7.0 mph

Today
High -- | Low -- °F
--% Chance of Precip.
Yesterday
High -- | Low -- °F
Precip. -- in
Pressure 30.09 in
Visibility 10.0 miles
Clouds
Dew Point 51 °F
Humidity 82%
Rainfall in
Snow Depth Not available.
7:24 AM 5:31 PM
First Quarter, 57% visible
METAR K6A1 072315Z AUTO 28005KT 10SM 15/11 A3009 RMK AO2 T01480106
Pressure 30.09 in
Visibility 10.0 miles
Clouds
Dew Point 51 °F
Humidity 82%
Rainfall in
Snow Depth Not available.
7:24 AM 5:31 PM
First Quarter, 57% visible
METAR K6A1 072315Z AUTO 28005KT 10SM 15/11 A3009 RMK AO2 T01480106

10-Day Weather Forecast

Almanac

Astronomy

Dec. 07, 2016 Rise Set
Actual Time
Civil Twilight
Nautical Twilight
Astronomical Twilight
Moon
Length of Visible Light
Length of Day
Tomorrow will be .
, % of the Moon is Illuminated

Today's Extremes

State Highs State Lows

Community

WunderPhotos

Upload Photos

1,956,219 photos uploaded!

WunderBlog® & News

Nearby

Air Quality

  Air Quality AQ Index Pollutant
Not available.

Snow Depth

Station Depth Elevation

Earthquake Activity

City Distance Mag. Time & Date
Minimum magnitude displayed is 2.5.

Coastal Water Temperatures

Place Temperature

Stations

Nearby Weather Stations

Station Location Temp. Windchill Dew Point Humidity Wind Precip. Elev Updated Type
                   

Watches & Warnings

There are currently no watches in effect.